sensor_id;sensor_type;location;lat;lon;timestamp;pressure;altitude;pressure_sealevel;temperature;humidity
13732;BME280;6937;56.096;12.664;2023-11-21T00:00:46;100581.94;;;4.64;100.00
13732;BME280;6937;56.096;12.664;2023-11-21T00:03:12;100572.25;;;4.63;100.00
13732;BME280;6937;56.096;12.664;2023-11-21T00:05:40;100575.06;;;4.60;100.00
13732;BME280;6937;56.096;12.664;2023-11-21T00:08:07;100571.41;;;4.62;100.00
13732;BME280;6937;56.096;12.664;2023-11-21T00:10:32;100578.47;;;4.62;100.00
13732;BME280;6937;56.096;12.664;2023-11-21T00:12:57;100583.00;;;4.60;100.00
13732;BME280;6937;56.096;12.664;2023-11-21T00:15:23;100589.06;;;4.62;100.00
13732;BME280;6937;56.096;12.664;2023-11-21T00:17:48;100583.00;;;4.60;100.00
13732;BME280;6937;56.096;12.664;2023-11-21T00:20:14;100590.09;;;4.59;100.00
13732;BME280;6937;56.096;12.664;2023-11-21T00:22:39;100587.44;;;4.59;100.00
13732;BME280;6937;56.096;12.664;2023-11-21T00:25:06;100589.22;;;4.59;100.00
13732;BME280;6937;56.096;12.664;2023-11-21T00:27:34;100597.09;;;4.60;100.00
13732;BME280;6937;56.096;12.664;2023-11-21T00:30:00;100593.50;;;4.61;100.00
13732;BME280;6937;56.096;12.664;2023-11-21T00:32:25;100597.97;;;4.61;100.00
13732;BME280;6937;56.096;12.664;2023-11-21T00:34:51;100593.81;;;4.55;100.00
13732;BME280;6937;56.096;12.664;2023-11-21T00:37:16;100608.63;;;4.59;100.00
13732;BME280;6937;56.096;12.664;2023-11-21T00:39:41;100613.03;;;4.59;100.00
13732;BME280;6937;56.096;12.664;2023-11-21T00:42:07;100602.63;;;4.56;100.00
13732;BME280;6937;56.096;12.664;2023-11-21T00:44:33;100603.72;;;4.52;100.00
13732;BME280;6937;56.096;12.664;2023-11-21T00:46:59;100601.81;;;4.54;100.00
13732;BME280;6937;56.096;12.664;2023-11-21T00:49:25;100617.56;;;4.57;100.00
13732;BME280;6937;56.096;12.664;2023-11-21T00:51:50;100616.78;;;4.55;100.00
13732;BME280;6937;56.096;12.664;2023-11-21T00:54:15;100612.56;;;4.51;100.00
13732;BME280;6937;56.096;12.664;2023-11-21T00:56:42;100629.16;;;4.54;100.00
13732;BME280;6937;56.096;12.664;2023-11-21T00:59:07;100630.00;;;4.55;100.00
13732;BME280;6937;56.096;12.664;2023-11-21T01:01:33;100634.44;;;4.54;100.00
13732;BME280;6937;56.096;12.664;2023-11-21T01:03:58;100645.03;;;4.54;100.00
13732;BME280;6937;56.096;12.664;2023-11-21T01:06:24;100635.69;;;4.47;100.00
13732;BME280;6937;56.096;12.664;2023-11-21T01:08:49;100650.31;;;4.54;100.00
13732;BME280;6937;56.096;12.664;2023-11-21T01:11:14;100653.81;;;4.55;100.00
13732;BME280;6937;56.096;12.664;2023-11-21T01:13:40;100650.56;;;4.50;100.00
13732;BME280;6937;56.096;12.664;2023-11-21T01:16:06;100665.28;;;4.55;100.00
13732;BME280;6937;56.096;12.664;2023-11-21T01:18:32;100662.56;;;4.57;100.00
13732;BME280;6937;56.096;12.664;2023-11-21T01:20:58;100664.56;;;4.52;100.00
13732;BME280;6937;56.096;12.664;2023-11-21T01:23:25;100665.28;;;4.55;100.00
13732;BME280;6937;56.096;12.664;2023-11-21T01:25:50;100670.72;;;4.52;100.00
13732;BME280;6937;56.096;12.664;2023-11-21T01:28:17;100676.78;;;4.54;100.00
13732;BME280;6937;56.096;12.664;2023-11-21T01:30:42;100681.16;;;4.55;100.00
13732;BME280;6937;56.096;12.664;2023-11-21T01:33:07;100687.38;;;4.54;100.00
13732;BME280;6937;56.096;12.664;2023-11-21T01:35:33;100690.97;;;4.53;100.00
13732;BME280;6937;56.096;12.664;2023-11-21T01:37:59;100695.31;;;4.54;100.00
13732;BME280;6937;56.096;12.664;2023-11-21T01:40:24;100702.31;;;4.55;100.00
13732;BME280;6937;56.096;12.664;2023-11-21T01:42:50;100706.75;;;4.55;100.00
13732;BME280;6937;56.096;12.664;2023-11-21T01:45:15;100708.63;;;4.53;100.00
13732;BME280;6937;56.096;12.664;2023-11-21T01:47:41;100717.50;;;4.52;100.00
13732;BME280;6937;56.096;12.664;2023-11-21T01:50:08;100710.47;;;4.51;100.00
13732;BME280;6937;56.096;12.664;2023-11-21T01:52:38;100709.72;;;4.49;100.00
13732;BME280;6937;56.096;12.664;2023-11-21T01:55:06;100719.28;;;4.51;100.00
13732;BME280;6937;56.096;12.664;2023-11-21T01:57:33;100726.50;;;4.48;100.00
13732;BME280;6937;56.096;12.664;2023-11-21T02:00:02;100728.22;;;4.49;100.00
13732;BME280;6937;56.096;12.664;2023-11-21T02:02:42;100732.66;;;4.48;100.00
13732;BME280;6937;56.096;12.664;2023-11-21T02:05:07;100731.81;;;4.48;100.00
13732;BME280;6937;56.096;12.664;2023-11-21T02:07:34;100735.47;;;4.45;100.00
13732;BME280;6937;56.096;12.664;2023-11-21T02:10:00;100739.75;;;4.48;100.00
13732;BME280;6937;56.096;12.664;2023-11-21T02:12:25;100746.25;;;4.41;100.00
13732;BME280;6937;56.096;12.664;2023-11-21T02:14:51;100755.75;;;4.45;100.00
13732;BME280;6937;56.096;12.664;2023-11-21T02:17:17;100759.44;;;4.42;100.00
13732;BME280;6937;56.096;12.664;2023-11-21T02:19:43;100757.69;;;4.41;100.00
13732;BME280;6937;56.096;12.664;2023-11-21T02:22:10;100758.84;;;4.35;100.00
13732;BME280;6937;56.096;12.664;2023-11-21T02:24:37;100766.66;;;4.38;100.00
13732;BME280;6937;56.096;12.664;2023-11-21T02:27:02;100772.88;;;4.37;100.00
13732;BME280;6937;56.096;12.664;2023-11-21T02:29:27;100761.63;;;4.32;100.00
13732;BME280;6937;56.096;12.664;2023-11-21T02:31:54;100774.84;;;4.32;100.00
13732;BME280;6937;56.096;12.664;2023-11-21T02:34:20;100774.09;;;4.30;100.00
13732;BME280;6937;56.096;12.664;2023-11-21T02:36:46;100784.50;;;4.33;100.00
13732;BME280;6937;56.096;12.664;2023-11-21T02:39:15;100782.13;;;4.27;100.00
13732;BME280;6937;56.096;12.664;2023-11-21T02:41:42;100791.66;;;4.31;100.00
13732;BME280;6937;56.096;12.664;2023-11-21T02:44:07;100791.78;;;4.28;100.00
13732;BME280;6937;56.096;12.664;2023-11-21T02:46:33;100789.34;;;4.24;100.00
13732;BME280;6937;56.096;12.664;2023-11-21T02:49:03;100798.75;;;4.31;100.00
13732;BME280;6937;56.096;12.664;2023-11-21T02:51:29;100809.41;;;4.29;100.00
13732;BME280;6937;56.096;12.664;2023-11-21T02:53:56;100804.09;;;4.29;100.00
13732;BME280;6937;56.096;12.664;2023-11-21T02:56:26;100806.03;;;4.26;100.00
13732;BME280;6937;56.096;12.664;2023-11-21T02:58:57;100808.53;;;4.29;100.00
13732;BME280;6937;56.096;12.664;2023-11-21T03:01:22;100808.81;;;4.23;100.00
13732;BME280;6937;56.096;12.664;2023-11-21T03:03:49;100814.03;;;4.24;100.00
13732;BME280;6937;56.096;12.664;2023-11-21T03:06:19;100820.25;;;4.23;100.00
13732;BME280;6937;56.096;12.664;2023-11-21T03:08:45;100822.19;;;4.20;100.00
13732;BME280;6937;56.096;12.664;2023-11-21T03:11:11;100825.81;;;4.17;100.00
13732;BME280;6937;56.096;12.664;2023-11-21T03:13:41;100832.16;;;4.13;100.00
13732;BME280;6937;56.096;12.664;2023-11-21T03:16:09;100841.06;;;4.12;100.00
13732;BME280;6937;56.096;12.664;2023-11-21T03:18:38;100845.59;;;4.09;100.00
13732;BME280;6937;56.096;12.664;2023-11-21T03:21:07;100846.59;;;4.06;100.00
13732;BME280;6937;56.096;12.664;2023-11-21T03:23:37;100849.22;;;4.06;100.00
13732;BME280;6937;56.096;12.664;2023-11-21T03:26:03;100854.53;;;4.06;100.00
13732;BME280;6937;56.096;12.664;2023-11-21T03:28:28;100847.84;;;3.98;100.00
13732;BME280;6937;56.096;12.664;2023-11-21T03:30:55;100864.53;;;4.00;100.00
13732;BME280;6937;56.096;12.664;2023-11-21T03:33:21;100860.44;;;3.93;100.00
13732;BME280;6937;56.096;12.664;2023-11-21T03:35:47;100876.88;;;3.99;100.00
13732;BME280;6937;56.096;12.664;2023-11-21T03:38:13;100884.81;;;3.99;100.00
13732;BME280;6937;56.096;12.664;2023-11-21T03:40:38;100886.69;;;3.97;100.00
13732;BME280;6937;56.096;12.664;2023-11-21T03:43:04;100884.81;;;3.99;100.00
13732;BME280;6937;56.096;12.664;2023-11-21T03:45:30;100894.59;;;3.97;100.00
13732;BME280;6937;56.096;12.664;2023-11-21T03:47:55;100888.50;;;3.95;100.00
13732;BME280;6937;56.096;12.664;2023-11-21T03:50:21;100901.06;;;3.90;100.00
13732;BME280;6937;56.096;12.664;2023-11-21T03:52:46;100905.38;;;3.93;100.00
13732;BME280;6937;56.096;12.664;2023-11-21T03:55:11;100908.06;;;3.91;100.00
13732;BME280;6937;56.096;12.664;2023-11-21T03:57:37;100913.63;;;3.85;100.00
13732;BME280;6937;56.096;12.664;2023-11-21T04:00:03;100918.78;;;3.88;100.00
13732;BME280;6937;56.096;12.664;2023-11-21T04:02:34;100906.66;;;3.82;100.00
13732;BME280;6937;56.096;12.664;2023-11-21T04:04:59;100914.59;;;3.82;100.00
13732;BME280;6937;56.096;12.664;2023-11-21T04:07:24;100922.63;;;3.81;100.00
13732;BME280;6937;56.096;12.664;2023-11-21T04:09:50;100920.16;;;3.76;100.00
13732;BME280;6937;56.096;12.664;2023-11-21T04:12:15;100932.38;;;3.79;100.00
13732;BME280;6937;56.096;12.664;2023-11-21T04:14:40;100934.09;;;3.80;100.00
13732;BME280;6937;56.096;12.664;2023-11-21T04:17:06;100935.16;;;3.76;100.00
13732;BME280;6937;56.096;12.664;2023-11-21T04:19:31;100942.16;;;3.77;100.00
13732;BME280;6937;56.096;12.664;2023-11-21T04:21:56;100957.84;;;3.81;100.00
13732;BME280;6937;56.096;12.664;2023-11-21T04:24:22;100963.19;;;3.80;100.00
13732;BME280;6937;56.096;12.664;2023-11-21T04:26:47;100963.19;;;3.80;100.00
13732;BME280;6937;56.096;12.664;2023-11-21T04:29:12;100973.75;;;3.80;100.00
13732;BME280;6937;56.096;12.664;2023-11-21T04:31:38;100970.38;;;3.76;100.00
13732;BME280;6937;56.096;12.664;2023-11-21T04:34:03;100978.19;;;3.79;100.00
13732;BME280;6937;56.096;12.664;2023-11-21T04:36:31;100977.31;;;3.79;100.00
13732;BME280;6937;56.096;12.664;2023-11-21T04:38:57;100988.69;;;3.81;100.00
13732;BME280;6937;56.096;12.664;2023-11-21T04:41:22;100983.28;;;3.84;100.00
13732;BME280;6937;56.096;12.664;2023-11-21T04:43:47;100978.19;;;3.79;100.00
13732;BME280;6937;56.096;12.664;2023-11-21T04:46:14;100961.53;;;3.77;100.00
13732;BME280;6937;56.096;12.664;2023-11-21T04:48:39;100967.59;;;3.79;100.00
13732;BME280;6937;56.096;12.664;2023-11-21T04:51:04;100969.47;;;3.77;100.00
13732;BME280;6937;56.096;12.664;2023-11-21T04:53:30;100987.84;;;3.80;100.00
13732;BME280;6937;56.096;12.664;2023-11-21T04:55:55;100988.84;;;3.78;100.00
13732;BME280;6937;56.096;12.664;2023-11-21T04:58:21;100985.47;;;3.74;100.00
13732;BME280;6937;56.096;12.664;2023-11-21T05:00:46;100996.75;;;3.78;100.00
13732;BME280;6937;56.096;12.664;2023-11-21T05:03:11;101009.84;;;3.81;100.00
13732;BME280;6937;56.096;12.664;2023-11-21T05:05:37;101004.56;;;3.81;100.00
13732;BME280;6937;56.096;12.664;2023-11-21T05:08:03;101015.91;;;3.83;100.00
13732;BME280;6937;56.096;12.664;2023-11-21T05:10:29;101010.63;;;3.83;100.00
13732;BME280;6937;56.096;12.664;2023-11-21T05:12:55;101005.28;;;3.84;100.00
13732;BME280;6937;56.096;12.664;2023-11-21T05:15:21;101013.09;;;3.87;100.00
13732;BME280;6937;56.096;12.664;2023-11-21T05:17:46;101015.69;;;3.89;100.00
13732;BME280;6937;56.096;12.664;2023-11-21T05:20:16;101008.66;;;3.88;100.00
13732;BME280;6937;56.096;12.664;2023-11-21T05:22:49;101023.53;;;3.90;100.00
13732;BME280;6937;56.096;12.664;2023-11-21T05:25:15;101025.31;;;3.90;100.00
13732;BME280;6937;56.096;12.664;2023-11-21T05:27:40;101028.81;;;3.90;100.00
13732;BME280;6937;56.096;12.664;2023-11-21T05:30:06;101026.25;;;3.89;100.00
13732;BME280;6937;56.096;12.664;2023-11-21T05:32:34;101024.28;;;3.94;100.00
13732;BME280;6937;56.096;12.664;2023-11-21T05:34:59;101024.34;;;3.93;100.00
13732;BME280;6937;56.096;12.664;2023-11-21T05:37:25;101032.16;;;3.96;100.00
13732;BME280;6937;56.096;12.664;2023-11-21T05:39:52;101020.72;;;3.95;100.00
13732;BME280;6937;56.096;12.664;2023-11-21T05:42:18;101031.03;;;4.01;100.00
13732;BME280;6937;56.096;12.664;2023-11-21T05:44:43;101032.72;;;4.04;100.00
13732;BME280;6937;56.096;12.664;2023-11-21T05:47:09;101024.78;;;4.04;100.00
13732;BME280;6937;56.096;12.664;2023-11-21T05:49:34;101036.09;;;4.07;100.00
13732;BME280;6937;56.096;12.664;2023-11-21T05:52:00;101038.66;;;4.09;100.00
13732;BME280;6937;56.096;12.664;2023-11-21T05:54:26;101039.59;;;4.08;100.00
13732;BME280;6937;56.096;12.664;2023-11-21T05:56:51;101038.00;;;4.04;100.00
13732;BME280;6937;56.096;12.664;2023-11-21T05:59:17;101052.69;;;4.11;100.00
13732;BME280;6937;56.096;12.664;2023-11-21T06:01:42;101043.19;;;4.05;100.00
13732;BME280;6937;56.096;12.664;2023-11-21T06:04:08;101056.06;;;4.14;100.00
13732;BME280;6937;56.096;12.664;2023-11-21T06:06:35;101051.69;;;4.13;100.00
13732;BME280;6937;56.096;12.664;2023-11-21T06:09:00;101056.13;;;4.13;100.00
13732;BME280;6937;56.096;12.664;2023-11-21T06:11:25;101058.56;;;4.17;100.00
13732;BME280;6937;56.096;12.664;2023-11-21T06:13:51;101060.31;;;4.18;100.00
13732;BME280;6937;56.096;12.664;2023-11-21T06:16:18;101055.00;;;4.18;100.00
13732;BME280;6937;56.096;12.664;2023-11-21T06:18:45;101063.88;;;4.17;100.00
13732;BME280;6937;56.096;12.664;2023-11-21T06:21:11;101058.72;;;4.14;100.00
13732;BME280;6937;56.096;12.664;2023-11-21T06:23:36;101072.53;;;4.21;100.00
13732;BME280;6937;56.096;12.664;2023-11-21T06:26:01;101069.97;;;4.19;100.00
13732;BME280;6937;56.096;12.664;2023-11-21T06:28:27;101059.50;;;4.16;100.00
13732;BME280;6937;56.096;12.664;2023-11-21T06:30:52;101074.44;;;4.17;100.00
13732;BME280;6937;56.096;12.664;2023-11-21T06:33:18;101074.41;;;4.19;100.00
13732;BME280;6937;56.096;12.664;2023-11-21T06:35:44;101078.88;;;4.17;100.00
13732;BME280;6937;56.096;12.664;2023-11-21T06:38:10;101085.84;;;4.19;100.00
13732;BME280;6937;56.096;12.664;2023-11-21T06:40:35;101094.75;;;4.17;100.00
13732;BME280;6937;56.096;12.664;2023-11-21T06:43:01;101107.19;;;4.15;100.00
13732;BME280;6937;56.096;12.664;2023-11-21T06:45:27;101115.03;;;4.16;100.00
13732;BME280;6937;56.096;12.664;2023-11-21T06:47:52;101124.84;;;4.14;100.00
13732;BME280;6937;56.096;12.664;2023-11-21T06:50:18;101131.03;;;4.13;100.00
13732;BME280;6937;56.096;12.664;2023-11-21T06:52:43;101139.16;;;4.09;100.00
13732;BME280;6937;56.096;12.664;2023-11-21T06:55:09;101140.13;;;4.06;100.00
13732;BME280;6937;56.096;12.664;2023-11-21T06:57:35;101143.78;;;4.04;100.00
13732;BME280;6937;56.096;12.664;2023-11-21T07:00:00;101153.31;;;4.08;100.00
13732;BME280;6937;56.096;12.664;2023-11-21T07:02:25;101145.59;;;4.02;100.00
13732;BME280;6937;56.096;12.664;2023-11-21T07:04:51;101166.59;;;4.06;100.00
13732;BME280;6937;56.096;12.664;2023-11-21T07:07:17;101154.41;;;4.02;100.00
13732;BME280;6937;56.096;12.664;2023-11-21T07:09:48;101158.78;;;4.03;100.00
13732;BME280;6937;56.096;12.664;2023-11-21T07:12:14;101164.81;;;4.07;100.00
13732;BME280;6937;56.096;12.664;2023-11-21T07:14:39;101167.44;;;4.07;100.00
13732;BME280;6937;56.096;12.664;2023-11-21T07:17:06;101172.88;;;4.04;100.00
13732;BME280;6937;56.096;12.664;2023-11-21T07:19:31;101175.44;;;4.05;100.00
13732;BME280;6937;56.096;12.664;2023-11-21T07:21:57;101178.16;;;4.04;100.00
13732;BME280;6937;56.096;12.664;2023-11-21T07:24:22;101182.44;;;4.06;100.00
13732;BME280;6937;56.096;12.664;2023-11-21T07:26:48;101189.66;;;4.03;100.00
13732;BME280;6937;56.096;12.664;2023-11-21T07:29:13;101199.31;;;4.04;100.00
13732;BME280;6937;56.096;12.664;2023-11-21T07:31:39;101194.25;;;3.98;100.00
13732;BME280;6937;56.096;12.664;2023-11-21T07:34:06;101199.44;;;4.01;100.00
13732;BME280;6937;56.096;12.664;2023-11-21T07:36:32;101212.41;;;4.07;100.00
13732;BME280;6937;56.096;12.664;2023-11-21T07:38:58;101218.50;;;4.09;100.00
13732;BME280;6937;56.096;12.664;2023-11-21T07:41:23;101215.84;;;4.09;100.00
13732;BME280;6937;56.096;12.664;2023-11-21T07:43:49;101226.34;;;4.12;100.00
13732;BME280;6937;56.096;12.664;2023-11-21T07:46:14;101225.34;;;4.14;100.00
13732;BME280;6937;56.096;12.664;2023-11-21T07:48:40;101234.03;;;4.18;100.00
13732;BME280;6937;56.096;12.664;2023-11-21T07:51:07;101232.13;;;4.21;100.00
13732;BME280;6937;56.096;12.664;2023-11-21T07:53:33;101235.47;;;4.26;100.00
13732;BME280;6937;56.096;12.664;2023-11-21T07:56:04;101242.44;;;4.27;100.00
13732;BME280;6937;56.096;12.664;2023-11-21T07:58:29;101232.72;;;4.28;100.00
13732;BME280;6937;56.096;12.664;2023-11-21T08:00:56;101229.00;;;4.33;100.00
13732;BME280;6937;56.096;12.664;2023-11-21T08:03:21;101236.84;;;4.35;100.00
13732;BME280;6937;56.096;12.664;2023-11-21T08:05:47;101250.78;;;4.40;100.00
13732;BME280;6937;56.096;12.664;2023-11-21T08:08:12;101239.41;;;4.38;100.00
13732;BME280;6937;56.096;12.664;2023-11-21T08:10:38;101249.06;;;4.39;100.00
13732;BME280;6937;56.096;12.664;2023-11-21T08:13:07;101265.75;;;4.41;100.00
13732;BME280;6937;56.096;12.664;2023-11-21T08:15:34;101261.97;;;4.47;100.00
13732;BME280;6937;56.096;12.664;2023-11-21T08:18:00;101267.19;;;4.50;100.00
13732;BME280;6937;56.096;12.664;2023-11-21T08:20:26;101275.91;;;4.52;100.00
13732;BME280;6937;56.096;12.664;2023-11-21T08:22:51;101269.75;;;4.51;100.00
13732;BME280;6937;56.096;12.664;2023-11-21T08:25:22;101275.13;;;4.50;100.00
13732;BME280;6937;56.096;12.664;2023-11-21T08:27:47;101282.31;;;4.46;100.00
13732;BME280;6937;56.096;12.664;2023-11-21T08:30:12;101288.53;;;4.45;100.00
13732;BME280;6937;56.096;12.664;2023-11-21T08:32:42;101306.94;;;4.48;100.00
13732;BME280;6937;56.096;12.664;2023-11-21T08:35:08;101308.78;;;4.46;100.00
13732;BME280;6937;56.096;12.664;2023-11-21T08:37:33;101319.38;;;4.46;100.00
13732;BME280;6937;56.096;12.664;2023-11-21T08:40:03;101315.91;;;4.44;100.00
13732;BME280;6937;56.096;12.664;2023-11-21T08:42:28;101325.75;;;4.41;100.00
13732;BME280;6937;56.096;12.664;2023-11-21T08:44:58;101331.09;;;4.39;100.00
13732;BME280;6937;56.096;12.664;2023-11-21T08:47:23;101330.16;;;4.40;100.00
13732;BME280;6937;56.096;12.664;2023-11-21T08:49:52;101331.38;;;4.31;100.00
13732;BME280;6937;56.096;12.664;2023-11-21T08:52:20;101339.31;;;4.31;100.00
13732;BME280;6937;56.096;12.664;2023-11-21T08:54:51;101334.09;;;4.30;100.00
13732;BME280;6937;56.096;12.664;2023-11-21T08:57:27;101355.31;;;4.28;100.00
13732;BME280;6937;56.096;12.664;2023-11-21T08:59:53;101365.03;;;4.28;100.00
13732;BME280;6937;56.096;12.664;2023-11-21T09:02:25;101363.25;;;4.28;100.00
13732;BME280;6937;56.096;12.664;2023-11-21T09:04:51;101372.97;;;4.28;100.00
13732;BME280;6937;56.096;12.664;2023-11-21T09:07:20;101368.59;;;4.27;100.00
13732;BME280;6937;56.096;12.664;2023-11-21T09:09:48;101366.91;;;4.24;100.00
13732;BME280;6937;56.096;12.664;2023-11-21T09:12:15;101376.44;;;4.30;100.00
13732;BME280;6937;56.096;12.664;2023-11-21T09:14:41;101384.19;;;4.34;100.00
13732;BME280;6937;56.096;12.664;2023-11-21T09:17:08;101382.47;;;4.33;100.00
13732;BME280;6937;56.096;12.664;2023-11-21T09:19:38;101379.00;;;4.31;100.00
13732;BME280;6937;56.096;12.664;2023-11-21T09:22:04;101385.13;;;4.33;100.00
13732;BME280;6937;56.096;12.664;2023-11-21T09:24:33;101384.53;;;4.25;100.00
13732;BME280;6937;56.096;12.664;2023-11-21T09:26:59;101402.81;;;4.31;100.00
13732;BME280;6937;56.096;12.664;2023-11-21T09:29:28;101402.94;;;4.28;100.00
13732;BME280;6937;56.096;12.664;2023-11-21T09:31:54;101402.72;;;4.34;100.00
13732;BME280;6937;56.096;12.664;2023-11-21T09:34:20;101410.66;;;4.34;100.00
13732;BME280;6937;56.096;12.664;2023-11-21T09:36:46;101420.25;;;4.37;100.00
13732;BME280;6937;56.096;12.664;2023-11-21T09:39:11;101417.63;;;4.37;100.00
13732;BME280;6937;56.096;12.664;2023-11-21T09:41:54;101421.13;;;4.37;100.00
13732;BME280;6937;56.096;12.664;2023-11-21T09:44:34;101428.16;;;4.38;100.00
13732;BME280;6937;56.096;12.664;2023-11-21T09:47:00;101424.56;;;4.39;100.00
13732;BME280;6937;56.096;12.664;2023-11-21T09:49:28;101438.50;;;4.45;100.00
13732;BME280;6937;56.096;12.664;2023-11-21T09:51:55;101445.59;;;4.44;100.00
13732;BME280;6937;56.096;12.664;2023-11-21T09:54:24;101446.41;;;4.46;100.00
13732;BME280;6937;56.096;12.664;2023-11-21T09:56:50;101440.25;;;4.46;100.00
13732;BME280;6937;56.096;12.664;2023-11-21T09:59:16;101446.28;;;4.49;100.00
13732;BME280;6937;56.096;12.664;2023-11-21T10:01:42;101441.19;;;4.43;100.00
13732;BME280;6937;56.096;12.664;2023-11-21T10:04:10;101449.88;;;4.47;100.00
13732;BME280;6937;56.096;12.664;2023-11-21T10:06:40;101461.41;;;4.46;100.00
13732;BME280;6937;56.096;12.664;2023-11-21T10:09:12;101474.66;;;4.46;100.00
13732;BME280;6937;56.096;12.664;2023-11-21T10:11:42;101475.56;;;4.45;100.00
13732;BME280;6937;56.096;12.664;2023-11-21T10:14:10;101475.44;;;4.48;100.00
13732;BME280;6937;56.096;12.664;2023-11-21T10:16:38;101492.16;;;4.50;100.00
13732;BME280;6937;56.096;12.664;2023-11-21T10:19:04;101493.00;;;4.50;100.00
13732;BME280;6937;56.096;12.664;2023-11-21T10:21:32;101503.66;;;4.49;100.00
13732;BME280;6937;56.096;12.664;2023-11-21T10:23:58;101508.13;;;4.47;100.00
13732;BME280;6937;56.096;12.664;2023-11-21T10:26:24;101516.88;;;4.49;100.00
13732;BME280;6937;56.096;12.664;2023-11-21T10:29:02;101519.47;;;4.50;100.00
13732;BME280;6937;56.096;12.664;2023-11-21T10:31:30;101523.91;;;4.50;100.00
13732;BME280;6937;56.096;12.664;2023-11-21T10:34:13;101521.34;;;4.47;100.00
13732;BME280;6937;56.096;12.664;2023-11-21T10:36:38;101521.31;;;4.48;100.00
13732;BME280;6937;56.096;12.664;2023-11-21T10:39:04;101530.91;;;4.51;100.00
13732;BME280;6937;56.096;12.664;2023-11-21T10:41:29;101528.25;;;4.51;100.00
13732;BME280;6937;56.096;12.664;2023-11-21T10:43:55;101525.81;;;4.46;100.00
13732;BME280;6937;56.096;12.664;2023-11-21T10:46:21;101538.06;;;4.49;100.00
13732;BME280;6937;56.096;12.664;2023-11-21T10:48:52;101529.22;;;4.50;100.00
13732;BME280;6937;56.096;12.664;2023-11-21T10:51:20;101542.44;;;4.50;100.00
13732;BME280;6937;56.096;12.664;2023-11-21T10:53:46;101545.88;;;4.52;100.00
13732;BME280;6937;56.096;12.664;2023-11-21T10:56:14;101543.19;;;4.53;100.00
13732;BME280;6937;56.096;12.664;2023-11-21T10:58:43;101552.06;;;4.52;100.00
13732;BME280;6937;56.096;12.664;2023-11-21T11:01:09;101554.59;;;4.55;100.00
13732;BME280;6937;56.096;12.664;2023-11-21T11:03:37;101553.88;;;4.50;100.00
13732;BME280;6937;56.096;12.664;2023-11-21T11:06:04;101563.41;;;4.56;100.00
13732;BME280;6937;56.096;12.664;2023-11-21T11:08:32;101561.63;;;4.56;100.00
13732;BME280;6937;56.096;12.664;2023-11-21T11:11:00;101573.81;;;4.60;100.00
13732;BME280;6937;56.096;12.664;2023-11-21T11:13:25;101571.88;;;4.65;100.00
13732;BME280;6937;56.096;12.664;2023-11-21T11:15:51;101576.81;;;4.76;100.00
13732;BME280;6937;56.096;12.664;2023-11-21T11:18:22;101585.50;;;4.79;100.00
13732;BME280;6937;56.096;12.664;2023-11-21T11:20:49;101583.25;;;4.92;100.00
13732;BME280;6937;56.096;12.664;2023-11-21T11:23:32;101589.63;;;5.11;100.00
13732;BME280;6937;56.096;12.664;2023-11-21T11:29:10;101579.34;;;5.27;100.00
13732;BME280;6937;56.096;12.664;2023-11-21T11:31:55;101595.34;;;5.24;100.00
13732;BME280;6937;56.096;12.664;2023-11-21T11:34:31;101597.59;;;5.11;100.00
13732;BME280;6937;56.096;12.664;2023-11-21T11:37:04;101612.84;;;5.05;100.00
13732;BME280;6937;56.096;12.664;2023-11-21T11:39:41;101621.84;;;4.99;100.00
13732;BME280;6937;56.096;12.664;2023-11-21T11:42:12;101633.44;;;4.97;100.00
13732;BME280;6937;56.096;12.664;2023-11-21T11:47:22;101650.19;;;4.97;100.00
13732;BME280;6937;56.096;12.664;2023-11-21T11:50:07;101650.84;;;5.04;100.00
13732;BME280;6937;56.096;12.664;2023-11-21T11:52:38;101663.66;;;5.16;100.00
13732;BME280;6937;56.096;12.664;2023-11-21T11:55:11;101658.72;;;5.30;100.00
13732;BME280;6937;56.096;12.664;2023-11-21T11:57:38;101660.19;;;5.39;100.00
13732;BME280;6937;56.096;12.664;2023-11-21T12:00:07;101672.56;;;5.38;100.00
13732;BME280;6937;56.096;12.664;2023-11-21T12:02:36;101682.53;;;5.31;100.00
13732;BME280;6937;56.096;12.664;2023-11-21T12:05:10;101686.91;;;5.32;100.00
13732;BME280;6937;56.096;12.664;2023-11-21T12:07:46;101686.34;;;5.48;100.00
13732;BME280;6937;56.096;12.664;2023-11-21T12:10:16;101694.69;;;5.62;100.00
13732;BME280;6937;56.096;12.664;2023-11-21T12:12:51;101684.53;;;5.96;100.00
13732;BME280;6937;56.096;12.664;2023-11-21T12:15:20;101658.53;;;6.27;100.00
13732;BME280;6937;56.096;12.664;2023-11-21T12:17:46;101647.88;;;6.49;100.00
13732;BME280;6937;56.096;12.664;2023-11-21T12:20:13;101654.09;;;6.70;100.00
13732;BME280;6937;56.096;12.664;2023-11-21T12:22:46;101641.88;;;6.86;100.00
13732;BME280;6937;56.096;12.664;2023-11-21T12:25:25;101661.84;;;6.54;100.00
13732;BME280;6937;56.096;12.664;2023-11-21T12:27:54;101683.63;;;6.19;100.00
13732;BME280;6937;56.096;12.664;2023-11-21T12:30:27;101701.78;;;6.08;100.00
13732;BME280;6937;56.096;12.664;2023-11-21T12:32:57;101714.13;;;6.09;100.00
13732;BME280;6937;56.096;12.664;2023-11-21T12:35:33;101692.09;;;6.72;100.00
13732;BME280;6937;56.096;12.664;2023-11-21T12:38:03;101632.69;;;8.63;100.00
13732;BME280;6937;56.096;12.664;2023-11-21T12:40:28;101597.88;;;9.82;100.00
13732;BME280;6937;56.096;12.664;2023-11-21T12:42:58;101587.34;;;10.71;100.00
13732;BME280;6937;56.096;12.664;2023-11-21T12:45:27;101588.56;;;11.38;100.00
13732;BME280;6937;56.096;12.664;2023-11-21T12:47:58;101617.22;;;11.92;100.00
13732;BME280;6937;56.096;12.664;2023-11-21T12:50:29;101653.75;;;12.34;100.00
13732;BME280;6937;56.096;12.664;2023-11-21T12:53:07;101720.53;;;12.66;100.00
13732;BME280;6937;56.096;12.664;2023-11-21T12:55:37;101791.72;;;12.57;100.00